Tallahassee Regional Airport Tallahassee US
ICAO: KTLH
IATA: TLH
Category: Large
Scheduled Services: Yes

Elevation: 81 ft
TransAlt. 18000 ft.

Airport Communications:
APP/DEP:128.7
ATIS:119.45
CLNC DEL:126.65
CTAF:118.7
GND:121.9
GAINESVILLE RDO:122.2
TWR:118.7
UNICOM:122.95

KTLH Zoom In..

If you have problems with the map follow the link
https://www.worldairports.se/pages/airport.php?
ICAO=KTLH

Runways:

(A) RW 09 length 8003 ft width 150 ft
---- / hdg 92

(B) RW 18 length 7000 ft width 150 ft
---- / hdg 182

(C) RW 27 length 8003 ft width 150 ft
ILS 111.90 / hdg 272

(D) RW 36 length 7000 ft width 150 ft
ILS 110.30 / hdg 2

Location; KTLH
Day. 08 / Time. 17.53 Zulu
* Altimeter: 30.18
* Temperature: 21° c. 69.8°f.
* Wind from: KTL° Speed H kn.
Dewpoint: 13° c.
Visibility: 10 Statute Miles.
Clouds: Few 2500 ft.
Clouds: Broken 7500 ft.

KTLH 081753Z 08008KT 10SM FEW025 BKN075 21/13 A3018 RMK AO2 SLP218 T02060133 10211 20133 58020 $


Wind From KTL°
Speed H kn.

 
 
jpsmedia worldairports.se 2019   terms of use